Time;durP1;ratioP1;P1;durP2;ratioP2;P2;SDS_P1;SDS_P2;PMS_P1;PMS_P2;Temp;Humidity;BMP_temperature;BMP_pressure;BME280_temperature;BME280_humidity;BME280_pressure;Samples;Min_cycle;Max_cycle;Signal;HPM_P1;HPM_P2
2022/01/20 00:03:24;;;;;;;19.07;3.83;;;;;3.70;102103.00;;;;9951694;29;20617;-81
2022/01/20 00:29:33;;;;;;;18.83;3.40;;;;;3.30;102096.00;;;;9956706;29;20268;-79
2022/01/20 00:39:57;;;;;;;17.47;3.40;;;;;3.10;102119.00;;;;9930353;29;20214;-79
2022/01/20 00:44:59;;;;;;;19.60;3.77;;;;;3.10;102110.00;;;;9896778;30;20227;-79
2022/01/20 00:50:02;;;;;;;19.50;3.37;;;;;3.00;102115.00;;;;9910914;29;20266;-79
2022/01/20 00:55:05;;;;;;;23.33;3.87;;;;;3.00;102119.00;;;;9910137;29;20199;-79
2022/01/20 01:00:09;;;;;;;17.37;3.33;;;;;2.90;102122.00;;;;9918307;29;20260;-81
2022/01/20 01:05:14;;;;;;;16.40;2.87;;;;;2.90;102130.00;;;;9881522;30;20224;-80
2022/01/20 01:10:27;;;;;;;14.33;3.10;;;;;2.80;102138.00;;;;9903413;29;20314;-80
2022/01/20 01:15:35;;;;;;;12.93;2.97;;;;;2.90;102133.00;;;;9918567;29;20293;-81
2022/01/20 01:26:02;;;;;;;13.47;2.40;;;;;3.00;102138.00;;;;9959395;29;20226;-80
2022/01/20 01:31:27;;;;;;;20.10;3.27;;;;;3.10;102144.00;;;;9902341;29;20199;-80
2022/01/20 01:36:29;;;;;;;15.53;2.60;;;;;3.40;102158.00;;;;9917099;29;20203;-80
2022/01/20 01:41:36;;;;;;;22.90;3.37;;;;;3.80;102163.00;;;;9896729;30;20284;-80
2022/01/20 01:46:39;;;;;;;15.17;2.80;;;;;3.90;102163.00;;;;9862867;30;20241;-80
2022/01/20 01:51:41;;;;;;;15.03;3.37;;;;;3.90;102167.00;;;;9872915;29;20199;-80
2022/01/20 01:56:46;;;;;;;15.37;3.50;;;;;3.90;102155.00;;;;9869364;30;20306;-80
2022/01/20 02:01:51;;;;;;;19.70;4.33;;;;;3.90;102169.00;;;;9887337;29;20268;-80
2022/01/20 02:22:52;;;;;;;12.17;3.80;;;;;3.90;102158.00;;;;9933828;29;20272;-80
2022/01/20 02:28:06;;;;;;;16.87;4.43;;;;;3.90;102161.00;;;;9915789;29;20198;-81
2022/01/20 02:33:11;;;;;;;20.77;4.80;;;;;3.90;102174.00;;;;9915111;29;20211;-80
2022/01/20 02:38:24;;;;;;;19.40;4.50;;;;;3.80;102178.00;;;;9886319;29;20301;-81
2022/01/20 02:48:47;;;;;;;19.57;3.73;;;;;3.70;102166.00;;;;9923568;29;20285;-81
2022/01/20 02:53:49;;;;;;;15.73;3.63;;;;;3.70;102166.00;;;;9894016;29;20541;-81
2022/01/20 02:58:52;;;;;;;15.03;3.80;;;;;3.70;102180.00;;;;9893384;29;20224;-80
2022/01/20 03:03:57;;;;;;;18.63;4.63;;;;;3.80;102166.00;;;;9907315;29;20561;-80
2022/01/20 03:08:59;;;;;;;15.80;3.90;;;;;3.70;102154.00;;;;9883178;29;20246;-80
2022/01/20 03:14:02;;;;;;;16.30;3.70;;;;;3.70;102151.00;;;;9907336;29;20195;-80
2022/01/20 03:19:04;;;;;;;9.97;2.93;;;;;3.80;102173.00;;;;9922018;29;20563;-81
2022/01/20 03:24:08;;;;;;;11.00;2.87;;;;;3.90;102172.00;;;;9921285;29;20303;-81
2022/01/20 03:29:13;;;;;;;10.93;3.27;;;;;4.10;102179.00;;;;9922027;29;20631;-81
2022/01/20 03:34:15;;;;;;;6.07;3.50;;;;;4.00;102179.00;;;;9921275;29;20210;-80
2022/01/20 03:39:22;;;;;;;11.83;3.60;;;;;3.90;102171.00;;;;9920382;29;20207;-80
2022/01/20 03:44:24;;;;;;;11.50;4.00;;;;;3.90;102161.00;;;;9905890;29;20226;-79
2022/01/20 03:49:39;;;;;;;9.47;3.60;;;;;3.80;102152.00;;;;9912201;29;20221;-80
2022/01/20 03:54:42;;;;;;;11.03;3.93;;;;;3.80;102155.00;;;;9888515;29;20195;-79
2022/01/20 04:00:07;;;;;;;8.23;3.53;;;;;3.70;102167.00;;;;9897783;30;20203;-79
2022/01/20 04:05:14;;;;;;;13.17;4.60;;;;;3.70;102165.00;;;;9897476;30;20800;-80
2022/01/20 04:10:32;;;;;;;9.30;3.57;;;;;3.60;102160.00;;;;9919197;29;20325;-80
2022/01/20 04:15:38;;;;;;;10.87;3.50;;;;;3.50;102164.00;;;;9889901;29;20202;-80
2022/01/20 04:20:40;;;;;;;10.90;3.33;;;;;3.50;102157.00;;;;9904304;29;20202;-80
2022/01/20 04:25:43;;;;;;;7.60;3.27;;;;;3.60;102155.00;;;;9903997;29;20258;-79
2022/01/20 04:30:45;;;;;;;10.60;3.10;;;;;3.70;102148.00;;;;9896444;30;20200;-79
2022/01/20 04:35:47;;;;;;;10.27;3.40;;;;;3.70;102170.00;;;;9881907;30;20188;-79
2022/01/20 04:40:48;;;;;;;10.70;3.40;;;;;3.70;102165.00;;;;9903615;29;20214;-79
2022/01/20 04:46:03;;;;;;;7.53;2.87;;;;;3.70;102170.00;;;;9888915;29;20219;-80
2022/01/20 05:01:47;;;;;;;13.53;4.40;;;;;3.80;102207.00;;;;9902777;29;20207;-79
2022/01/20 05:06:56;;;;;;;12.27;2.90;;;;;3.90;102205.00;;;;9888425;29;20582;-79
2022/01/20 05:12:06;;;;;;;14.43;3.13;;;;;3.90;102198.00;;;;9880771;30;20233;-79
2022/01/20 05:17:10;;;;;;;5.90;2.97;;;;;3.80;102196.00;;;;9894663;30;20322;-78
2022/01/20 05:22:14;;;;;;;8.67;3.07;;;;;3.80;102185.00;;;;9936091;29;20297;-80
2022/01/20 05:27:26;;;;;;;16.17;3.83;;;;;3.70;102194.00;;;;9925866;29;20190;-78
2022/01/20 05:32:28;;;;;;;11.10;3.40;;;;;3.70;102201.00;;;;9928655;29;20298;-80
2022/01/20 05:37:30;;;;;;;8.77;4.10;;;;;3.50;102215.00;;;;9901773;29;20206;-79
2022/01/20 05:42:32;;;;;;;17.60;4.50;;;;;3.50;102203.00;;;;9883493;29;20224;-79
2022/01/20 05:47:47;;;;;;;13.33;3.80;;;;;3.50;102204.00;;;;9886267;30;20238;-79
2022/01/20 05:53:18;;;;;;;17.50;5.50;;;;;3.60;102215.00;;;;9968881;29;20198;-80
2022/01/20 05:58:20;;;;;;;17.23;4.47;;;;;3.70;102227.00;;;;9940192;29;20210;-80
2022/01/20 06:03:36;;;;;;;13.47;3.43;;;;;3.70;102227.00;;;;9938800;29;20756;-79
2022/01/20 06:08:41;;;;;;;22.07;4.30;;;;;3.80;102221.00;;;;9940492;29;20662;-79
2022/01/20 06:13:44;;;;;;;11.40;3.40;;;;;3.90;102220.00;;;;9925151;29;20647;-79
2022/01/20 06:18:46;;;;;;;13.17;2.67;;;;;4.00;102233.00;;;;9888512;29;20202;-79
2022/01/20 06:23:50;;;;;;;9.57;2.23;;;;;4.00;102261.00;;;;9894739;29;20224;-79
2022/01/20 06:28:53;;;;;;;14.73;2.60;;;;;3.80;102288.00;;;;9914942;29;20210;-78
2022/01/20 06:33:56;;;;;;;16.57;2.60;;;;;3.80;102276.00;;;;9908648;29;20285;-79
2022/01/20 06:38:58;;;;;;;11.87;2.20;;;;;3.80;102277.00;;;;9910989;29;20212;-79
2022/01/20 06:44:01;;;;;;;17.67;2.50;;;;;3.80;102287.00;;;;9877536;30;20220;-79
2022/01/20 06:49:04;;;;;;;14.63;2.53;;;;;3.70;102308.00;;;;9887952;29;20636;-79
2022/01/20 06:54:20;;;;;;;10.07;2.37;;;;;3.70;102303.00;;;;9936696;29;20201;-79
2022/01/20 06:59:22;;;;;;;13.70;2.83;;;;;3.70;102318.00;;;;9910645;29;20280;-79
2022/01/20 07:04:27;;;;;;;12.37;2.37;;;;;3.80;102315.00;;;;9876939;30;20220;-79
2022/01/20 07:09:36;;;;;;;12.90;2.60;;;;;3.80;102327.00;;;;9896508;29;20244;-79
2022/01/20 07:15:03;;;;;;;12.33;2.60;;;;;3.80;102335.00;;;;9936782;29;20232;-79
2022/01/20 07:20:07;;;;;;;19.00;3.03;;;;;3.80;102355.00;;;;9942146;29;20215;-78
2022/01/20 07:25:20;;;;;;;10.57;2.33;;;;;3.80;102355.00;;;;9914726;29;20214;-79
2022/01/20 07:30:34;;;;;;;19.13;3.47;;;;;3.80;102359.00;;;;9920963;29;20198;-79
2022/01/20 07:35:37;;;;;;;11.13;2.83;;;;;3.80;102359.00;;;;9958215;29;20558;-79
2022/01/20 07:40:39;;;;;;;12.83;3.03;;;;;3.80;102382.00;;;;9931396;29;20210;-79
2022/01/20 07:45:41;;;;;;;13.03;3.20;;;;;3.80;102405.00;;;;9906371;29;20253;-79
2022/01/20 07:50:52;;;;;;;14.83;2.83;;;;;3.70;102402.00;;;;9912163;29;20231;-80
2022/01/20 07:56:01;;;;;;;17.07;2.57;;;;;3.70;102401.00;;;;9958433;29;20212;-79
2022/01/20 08:01:05;;;;;;;12.67;2.60;;;;;3.70;102411.00;;;;9928009;29;20237;-78
2022/01/20 08:06:13;;;;;;;17.27;3.20;;;;;3.70;102418.00;;;;9957332;29;20222;-78
2022/01/20 08:11:20;;;;;;;13.83;3.57;;;;;3.70;102424.00;;;;9926113;29;20218;-78
2022/01/20 08:16:23;;;;;;;23.37;3.30;;;;;3.80;102420.00;;;;9934081;29;20690;-79
2022/01/20 08:21:25;;;;;;;13.20;3.50;;;;;3.80;102411.00;;;;9941374;29;20202;-79
2022/01/20 08:26:28;;;;;;;15.77;4.47;;;;;3.90;102409.00;;;;9942035;29;20260;-80
2022/01/20 08:31:31;;;;;;;16.50;4.10;;;;;4.00;102404.00;;;;9926854;29;20202;-79
2022/01/20 08:36:41;;;;;;;16.60;4.70;;;;;3.90;102412.00;;;;9942525;29;20198;-79
2022/01/20 08:41:43;;;;;;;17.83;4.13;;;;;3.80;102418.00;;;;9929290;29;20210;-79
2022/01/20 08:46:47;;;;;;;12.10;3.47;;;;;3.70;102431.00;;;;9940482;29;20240;-80
2022/01/20 08:51:50;;;;;;;11.40;3.97;;;;;3.90;102436.00;;;;9940722;29;20675;-80
2022/01/20 08:56:56;;;;;;;16.77;4.70;;;;;4.50;102464.00;;;;9940911;29;20247;-79
2022/01/20 09:01:58;;;;;;;14.67;4.60;;;;;4.40;102475.00;;;;9940105;29;20214;-79
2022/01/20 09:07:01;;;;;;;12.07;3.87;;;;;4.60;102477.00;;;;9969653;29;20254;-79
2022/01/20 09:17:14;;;;;;;12.13;3.77;;;;;4.50;102493.00;;;;9954796;29;20194;-79
2022/01/20 09:22:17;;;;;;;15.13;4.03;;;;;4.50;102499.00;;;;9909723;29;20203;-80
2022/01/20 09:27:19;;;;;;;12.83;3.07;;;;;4.50;102504.00;;;;9918201;29;20223;-79
2022/01/20 09:32:23;;;;;;;13.77;3.70;;;;;4.70;102504.00;;;;9916735;29;20204;-80
2022/01/20 09:37:27;;;;;;;11.83;2.80;;;;;4.90;102505.00;;;;9917132;29;20203;-80
2022/01/20 09:42:33;;;;;;;16.67;3.93;;;;;5.00;102501.00;;;;9917069;29;20195;-80
2022/01/20 09:47:36;;;;;;;15.00;3.03;;;;;5.20;102499.00;;;;9900834;29;20242;-80
2022/01/20 09:52:44;;;;;;;12.53;3.03;;;;;5.40;102512.00;;;;9901434;29;20252;-80
2022/01/20 09:58:00;;;;;;;16.00;3.33;;;;;5.50;102519.00;;;;9957165;29;20262;-79
2022/01/20 10:03:09;;;;;;;16.10;4.47;;;;;5.50;102532.00;;;;9936062;29;20255;-79
2022/01/20 10:08:16;;;;;;;18.33;3.37;;;;;5.50;102546.00;;;;9927283;29;20245;-79
2022/01/20 10:13:41;;;;;;;14.13;3.60;;;;;5.60;102546.00;;;;9894687;29;20199;-80
2022/01/20 10:19:00;;;;;;;10.87;2.60;;;;;5.80;102549.00;;;;9888518;29;20207;-79
2022/01/20 10:24:13;;;;;;;18.77;3.50;;;;;6.40;102546.00;;;;9884159;29;20221;-78
2022/01/20 10:29:20;;;;;;;11.20;2.50;;;;;5.80;102557.00;;;;9915336;29;20203;-78
2022/01/20 10:34:42;;;;;;;6.17;2.10;;;;;5.10;102589.00;;;;9905032;29;20292;-79
2022/01/20 10:39:51;;;;;;;8.97;3.00;;;;;4.30;102584.00;;;;9910579;29;20215;-79
2022/01/20 10:44:56;;;;;;;14.27;2.77;;;;;4.30;102580.00;;;;9899788;29;20214;-79
2022/01/20 10:50:13;;;;;;;11.73;2.40;;;;;4.30;102591.00;;;;9914705;29;20222;-79
2022/01/20 10:55:33;;;;;;;9.80;2.30;;;;;4.30;102595.00;;;;9899553;29;20268;-79
2022/01/20 11:00:47;;;;;;;10.67;2.90;;;;;5.30;102596.00;;;;9885565;29;20203;-79
2022/01/20 11:05:53;;;;;;;13.57;3.50;;;;;5.90;102583.00;;;;9929200;29;20257;-79
2022/01/20 11:11:16;;;;;;;6.47;2.43;;;;;6.60;102582.00;;;;9943208;29;20314;-79
2022/01/20 11:16:39;;;;;;;7.37;2.30;;;;;6.90;102592.00;;;;9894327;29;20191;-79
2022/01/20 11:21:44;;;;;;;11.27;2.80;;;;;7.90;102571.00;;;;9906583;29;20203;-79
2022/01/20 11:26:55;;;;;;;6.03;2.27;;;;;7.60;102567.00;;;;9891695;29;20223;-79
2022/01/20 11:32:25;;;;;;;10.40;2.47;;;;;6.50;102568.00;;;;9905439;29;20230;-79
2022/01/20 11:37:54;;;;;;;9.37;2.00;;;;;5.80;102570.00;;;;9922236;29;20206;-79
2022/01/20 11:43:09;;;;;;;13.23;1.60;;;;;5.70;102549.00;;;;9906152;29;20203;-79
2022/01/20 11:48:30;;;;;;;11.07;2.37;;;;;5.60;102553.00;;;;9958051;29;20194;-79
2022/01/20 11:53:32;;;;;;;4.40;1.30;;;;;5.50;102549.00;;;;9920403;29;20199;-80
2022/01/20 11:58:34;;;;;;;4.00;1.47;;;;;5.60;102555.00;;;;9870177;29;20265;-79
2022/01/20 12:03:49;;;;;;;6.10;1.67;;;;;5.90;102547.00;;;;9906005;29;20219;-79
2022/01/20 12:09:01;;;;;;;10.97;1.93;;;;;6.90;102537.00;;;;9911693;29;20233;-79
2022/01/20 12:14:08;;;;;;;8.10;2.03;;;;;8.20;102532.00;;;;9912278;29;20269;-78
2022/01/20 12:19:10;;;;;;;8.57;1.53;;;;;7.30;102520.00;;;;9919916;29;20294;-79
2022/01/20 12:24:12;;;;;;;8.60;1.20;;;;;6.50;102519.00;;;;9916586;29;20218;-79
2022/01/20 12:29:14;;;;;;;4.70;1.50;;;;;5.80;102529.00;;;;9890086;29;20207;-79
2022/01/20 12:34:19;;;;;;;5.50;1.90;;;;;5.60;102528.00;;;;9936477;29;20273;-79
2022/01/20 12:39:28;;;;;;;4.27;1.47;;;;;5.30;102534.00;;;;9909496;29;20211;-79
2022/01/20 12:50:17;;;;;;;7.53;1.63;;;;;6.40;102518.00;;;;9902669;29;20206;-78
2022/01/20 12:55:20;;;;;;;7.00;2.03;;;;;6.60;102509.00;;;;9906613;29;20196;-77
2022/01/20 13:00:22;;;;;;;5.27;1.47;;;;;6.70;102512.00;;;;9888501;29;20263;-78
2022/01/20 13:05:27;;;;;;;8.50;1.77;;;;;6.80;102499.00;;;;9933660;29;20215;-78
2022/01/20 13:10:33;;;;;;;9.93;1.90;;;;;6.80;102502.00;;;;9913560;29;20703;-78
2022/01/20 13:15:35;;;;;;;8.00;1.80;;;;;7.40;102518.00;;;;9890541;29;20245;-78
2022/01/20 13:20:50;;;;;;;7.67;2.40;;;;;7.40;102527.00;;;;9902934;29;20211;-78
2022/01/20 13:26:05;;;;;;;4.73;1.67;;;;;6.20;102508.00;;;;9917948;29;20214;-78
2022/01/20 13:31:15;;;;;;;8.63;1.90;;;;;5.60;102515.00;;;;9915967;29;20229;-78
2022/01/20 13:36:19;;;;;;;7.63;1.77;;;;;5.50;102522.00;;;;9916840;29;20206;-78
2022/01/20 13:41:27;;;;;;;9.47;1.37;;;;;5.50;102531.00;;;;9919287;29;20214;-79
2022/01/20 13:46:28;;;;;;;13.73;2.37;;;;;5.50;102505.00;;;;9887045;29;20223;-79
2022/01/20 13:51:30;;;;;;;3.83;1.43;;;;;5.70;102513.00;;;;9937685;29;20209;-78
2022/01/20 13:56:37;;;;;;;8.70;1.57;;;;;5.90;102520.00;;;;9930079;29;20207;-78
2022/01/20 14:01:39;;;;;;;17.03;1.97;;;;;6.00;102520.00;;;;9933914;29;20195;-79
2022/01/20 14:06:41;;;;;;;9.80;1.73;;;;;6.00;102519.00;;;;9907228;29;20600;-78
2022/01/20 14:11:45;;;;;;;8.90;1.97;;;;;5.90;102524.00;;;;9916071;29;20267;-78
2022/01/20 14:16:47;;;;;;;7.27;1.63;;;;;5.90;102520.00;;;;9890352;29;20217;-79
2022/01/20 14:21:50;;;;;;;8.97;1.63;;;;;5.90;102537.00;;;;9916460;29;20210;-79
2022/01/20 14:26:57;;;;;;;2.60;0.77;;;;;5.90;102541.00;;;;9948126;29;20313;-79
2022/01/20 14:31:59;;;;;;;15.73;3.77;;;;;5.90;102547.00;;;;9916563;29;20198;-79
2022/01/20 14:37:03;;;;;;;5.23;1.57;;;;;5.90;102560.00;;;;9933669;29;20210;-79
2022/01/20 14:42:09;;;;;;;6.13;1.60;;;;;5.80;102559.00;;;;9957607;29;20575;-78
2022/01/20 14:47:11;;;;;;;4.60;1.67;;;;;5.70;102571.00;;;;9940234;29;20215;-78
2022/01/20 14:52:13;;;;;;;4.27;1.10;;;;;5.60;102556.00;;;;9911902;29;20202;-79
2022/01/20 14:57:15;;;;;;;5.00;0.93;;;;;5.60;102555.00;;;;9920370;29;20203;-78
2022/01/20 15:02:26;;;;;;;8.70;1.77;;;;;5.80;102575.00;;;;9930406;29;20214;-79
2022/01/20 15:07:28;;;;;;;6.17;1.87;;;;;5.60;102565.00;;;;9937960;29;20240;-79
2022/01/20 15:12:32;;;;;;;8.87;1.50;;;;;5.40;102562.00;;;;9931471;29;20207;-78
2022/01/20 15:17:33;;;;;;;6.10;1.07;;;;;5.20;102574.00;;;;9938946;29;20244;-78
2022/01/20 15:22:36;;;;;;;4.63;1.17;;;;;5.10;102573.00;;;;9922547;29;20651;-78
2022/01/20 15:27:38;;;;;;;2.43;0.83;;;;;4.90;102561.00;;;;9945708;29;20229;-79
2022/01/20 15:32:41;;;;;;;6.07;1.27;;;;;4.90;102578.00;;;;9945719;29;20203;-78
2022/01/20 15:37:43;;;;;;;7.13;1.87;;;;;4.80;102576.00;;;;9922911;29;20203;-78
2022/01/20 15:42:45;;;;;;;5.20;2.37;;;;;4.30;102587.00;;;;9893596;29;20215;-79
2022/01/20 15:47:47;;;;;;;5.37;1.13;;;;;3.90;102602.00;;;;9921909;29;20301;-78
2022/01/20 15:52:48;;;;;;;8.53;1.70;;;;;3.70;102612.00;;;;9905660;29;20195;-78
2022/01/20 15:57:50;;;;;;;7.83;1.70;;;;;3.70;102623.00;;;;9921891;29;20252;-78
2022/01/20 16:02:53;;;;;;;3.47;2.23;;;;;3.60;102608.00;;;;9914985;29;20226;-79
2022/01/20 16:07:55;;;;;;;6.57;1.63;;;;;3.50;102594.00;;;;9915602;29;20255;-78
2022/01/20 16:12:57;;;;;;;6.90;1.90;;;;;3.50;102604.00;;;;9874548;30;20222;-79
2022/01/20 16:17:59;;;;;;;6.27;1.70;;;;;3.40;102588.00;;;;9894108;29;20600;-78
2022/01/20 16:23:02;;;;;;;8.20;1.57;;;;;3.30;102605.00;;;;9920712;29;20206;-78
2022/01/20 16:28:04;;;;;;;5.20;1.57;;;;;3.20;102621.00;;;;9918821;29;20699;-78
2022/01/20 16:33:06;;;;;;;9.17;1.70;;;;;3.10;102632.00;;;;9954069;29;20498;-78
2022/01/20 16:38:08;;;;;;;5.23;1.20;;;;;2.90;102652.00;;;;9939027;29;20198;-77
2022/01/20 16:43:13;;;;;;;8.20;1.73;;;;;2.80;102658.00;;;;9942092;29;20370;-79
2022/01/20 16:48:15;;;;;;;6.30;1.50;;;;;2.70;102649.00;;;;9928912;29;20268;-78
2022/01/20 16:53:18;;;;;;;5.00;1.67;;;;;2.60;102650.00;;;;9928798;29;20206;-78
2022/01/20 16:58:20;;;;;;;8.27;1.47;;;;;2.70;102663.00;;;;9928184;29;20202;-78
2022/01/20 17:03:22;;;;;;;5.87;2.10;;;;;2.70;102662.00;;;;9911810;29;20209;-79
2022/01/20 17:08:24;;;;;;;8.00;1.77;;;;;2.80;102666.00;;;;9928770;29;20292;-78
2022/01/20 17:13:26;;;;;;;4.77;1.87;;;;;2.80;102660.00;;;;9917931;29;20203;-79
2022/01/20 17:18:28;;;;;;;5.57;2.47;;;;;2.90;102671.00;;;;9888519;29;20199;-79
2022/01/20 17:23:32;;;;;;;8.20;3.13;;;;;2.90;102693.00;;;;9931010;29;20655;-78
2022/01/20 17:28:34;;;;;;;7.13;2.83;;;;;3.00;102696.00;;;;9901993;29;20222;-78
2022/01/20 17:33:36;;;;;;;11.23;3.80;;;;;3.00;102701.00;;;;9917916;29;20195;-78
2022/01/20 17:38:38;;;;;;;10.27;3.10;;;;;3.00;102703.00;;;;9922561;29;20259;-78
2022/01/20 17:43:40;;;;;;;10.33;2.63;;;;;3.00;102716.00;;;;9894804;29;20207;-78
2022/01/20 17:48:42;;;;;;;9.63;3.77;;;;;2.90;102703.00;;;;9879311;29;20268;-78
2022/01/20 17:53:44;;;;;;;14.07;4.37;;;;;2.90;102706.00;;;;9913851;29;20218;-78
2022/01/20 17:58:45;;;;;;;10.07;4.27;;;;;2.90;102725.00;;;;9898106;29;20215;-78
2022/01/20 18:03:48;;;;;;;9.50;3.23;;;;;2.90;102710.00;;;;9908332;29;20198;-78
2022/01/20 18:08:49;;;;;;;15.70;3.77;;;;;2.90;102718.00;;;;9920343;29;20234;-79
2022/01/20 18:13:51;;;;;;;8.87;3.40;;;;;3.00;102716.00;;;;9950047;29;20202;-79
2022/01/20 18:18:53;;;;;;;10.17;3.33;;;;;3.00;102729.00;;;;9948898;29;20203;-78
2022/01/20 18:23:56;;;;;;;17.83;4.80;;;;;3.10;102750.00;;;;9915882;29;20199;-78
2022/01/20 18:28:58;;;;;;;14.67;6.33;;;;;3.10;102752.00;;;;9915352;29;20253;-78
2022/01/20 18:34:00;;;;;;;29.70;9.30;;;;;3.00;102759.00;;;;9919885;29;20210;-80
2022/01/20 18:39:03;;;;;;;12.07;4.70;;;;;3.00;102756.00;;;;9920856;29;20706;-79
2022/01/20 18:44:05;;;;;;;11.40;2.70;;;;;2.90;102759.00;;;;9917185;29;20210;-78
2022/01/20 18:49:07;;;;;;;12.73;3.37;;;;;2.90;102760.00;;;;9890625;29;20664;-78
2022/01/20 18:54:13;;;;;;;11.87;2.43;;;;;2.90;102773.00;;;;9951726;29;20202;-78
2022/01/20 18:59:14;;;;;;;10.93;2.30;;;;;2.90;102772.00;;;;9951345;29;20202;-79
2022/01/20 19:04:16;;;;;;;10.17;2.37;;;;;2.90;102770.00;;;;9938274;29;20202;-78
2022/01/20 19:09:18;;;;;;;14.00;2.80;;;;;2.90;102775.00;;;;9922114;29;20241;-78
2022/01/20 19:14:20;;;;;;;15.90;3.60;;;;;2.90;102777.00;;;;9912072;29;20203;-79
2022/01/20 19:19:24;;;;;;;7.63;2.77;;;;;2.90;102781.00;;;;9919408;29;20199;-79
2022/01/20 19:24:26;;;;;;;12.43;3.50;;;;;2.90;102774.00;;;;9865932;30;20216;-78
2022/01/20 19:29:28;;;;;;;13.57;3.30;;;;;2.80;102781.00;;;;9898935;30;20229;-79
2022/01/20 19:34:30;;;;;;;13.43;3.00;;;;;2.80;102786.00;;;;9895855;29;20203;-79
2022/01/20 19:39:32;;;;;;;18.40;3.93;;;;;2.80;102783.00;;;;9923546;29;20194;-78
2022/01/20 19:44:36;;;;;;;11.57;2.80;;;;;2.80;102778.00;;;;9957693;29;20223;-79
2022/01/20 19:49:39;;;;;;;10.77;2.83;;;;;2.80;102786.00;;;;9947304;29;20198;-79
2022/01/20 19:54:41;;;;;;;11.67;4.07;;;;;2.80;102773.00;;;;9957650;29;20199;-79
2022/01/20 19:59:43;;;;;;;10.60;3.10;;;;;2.80;102779.00;;;;9957248;29;20203;-78
2022/01/20 20:04:45;;;;;;;14.40;4.47;;;;;2.70;102778.00;;;;9894109;29;20252;-78
2022/01/20 20:09:47;;;;;;;10.17;3.57;;;;;2.70;102783.00;;;;9919691;29;20608;-79
2022/01/20 20:14:49;;;;;;;11.73;3.13;;;;;2.70;102785.00;;;;9930490;29;20198;-78
2022/01/20 20:19:51;;;;;;;14.83;4.00;;;;;2.70;102795.00;;;;9924730;29;20206;-78
2022/01/20 20:24:53;;;;;;;14.57;4.10;;;;;2.70;102802.00;;;;9897378;29;20225;-78
2022/01/20 20:29:55;;;;;;;23.43;3.70;;;;;2.70;102800.00;;;;9886467;30;20203;-79
2022/01/20 20:34:57;;;;;;;17.90;3.67;;;;;2.70;102810.00;;;;9898524;29;20256;-79
2022/01/20 20:39:59;;;;;;;14.77;4.10;;;;;2.70;102811.00;;;;9903511;29;20688;-78
2022/01/20 20:45:04;;;;;;;20.33;4.27;;;;;2.80;102808.00;;;;9918890;29;20211;-78
2022/01/20 20:50:08;;;;;;;16.00;4.20;;;;;2.80;102825.00;;;;9886030;30;20223;-78
2022/01/20 20:55:12;;;;;;;15.50;4.33;;;;;2.80;102830.00;;;;9881065;30;20219;-79
2022/01/20 21:00:16;;;;;;;12.23;4.07;;;;;2.70;102838.00;;;;9903847;29;20294;-79
2022/01/20 21:05:18;;;;;;;18.23;4.40;;;;;2.60;102847.00;;;;9918866;29;20749;-78
2022/01/20 21:10:20;;;;;;;13.53;3.77;;;;;2.40;102850.00;;;;9916747;29;20349;-79
2022/01/20 21:15:22;;;;;;;13.67;3.80;;;;;2.30;102858.00;;;;9902456;29;20203;-78
2022/01/20 21:20:25;;;;;;;14.47;4.33;;;;;2.30;102872.00;;;;9903049;29;20218;-78
2022/01/20 21:25:28;;;;;;;12.37;3.83;;;;;2.40;102876.00;;;;9916767;29;20262;-78
2022/01/20 21:30:29;;;;;;;13.83;4.00;;;;;2.40;102874.00;;;;9914647;29;20610;-78
2022/01/20 21:35:31;;;;;;;18.47;4.20;;;;;2.40;102870.00;;;;9901316;29;20203;-79
2022/01/20 21:40:35;;;;;;;14.23;3.70;;;;;2.40;102870.00;;;;9931370;29;20206;-78
2022/01/20 21:45:37;;;;;;;13.27;4.43;;;;;2.50;102889.00;;;;9950622;29;20679;-78
2022/01/20 21:50:41;;;;;;;16.57;4.73;;;;;2.50;102905.00;;;;9951584;29;20571;-78
2022/01/20 21:55:43;;;;;;;15.77;5.13;;;;;2.50;102889.00;;;;9947127;29;20207;-78
2022/01/20 22:00:46;;;;;;;20.03;5.57;;;;;2.50;102885.00;;;;9916447;29;20195;-78
2022/01/20 22:05:49;;;;;;;17.80;4.60;;;;;2.50;102899.00;;;;9915033;29;20219;-79
2022/01/20 22:10:52;;;;;;;25.93;16.40;;;;;2.60;102908.00;;;;9926229;29;20237;-79
2022/01/20 22:15:57;;;;;;;16.60;4.67;;;;;2.60;102912.00;;;;9918736;29;20199;-79
2022/01/20 22:21:03;;;;;;;20.60;5.10;;;;;2.60;102913.00;;;;9914695;29;20259;-79
2022/01/20 22:26:07;;;;;;;13.40;4.70;;;;;2.60;102908.00;;;;9915049;29;20699;-79
2022/01/20 22:31:10;;;;;;;11.47;4.53;;;;;2.60;102906.00;;;;9919402;29;20206;-78
2022/01/20 22:36:12;;;;;;;16.60;4.87;;;;;2.50;102911.00;;;;9909818;29;20203;-79
2022/01/20 22:41:14;;;;;;;17.73;4.93;;;;;2.30;102907.00;;;;9915634;29;20215;-78
2022/01/20 22:46:18;;;;;;;18.80;4.27;;;;;2.20;102905.00;;;;9891232;29;20277;-78
2022/01/20 22:51:20;;;;;;;19.20;4.40;;;;;2.10;102901.00;;;;9914968;29;20210;-78
2022/01/20 22:56:22;;;;;;;15.17;3.93;;;;;2.10;102908.00;;;;9899662;29;20652;-78
2022/01/20 23:01:23;;;;;;;19.13;3.60;;;;;2.10;102910.00;;;;9907344;29;20254;-79
2022/01/20 23:06:25;;;;;;;13.53;4.50;;;;;1.90;102916.00;;;;9922494;29;20629;-79
2022/01/20 23:11:27;;;;;;;17.17;6.23;;;;;1.80;102928.00;;;;9884636;30;20272;-79
2022/01/20 23:21:35;;;;;;;12.80;5.37;;;;;1.40;102930.00;;;;9907492;29;20211;-78
2022/01/20 23:26:37;;;;;;;20.20;6.27;;;;;1.40;102949.00;;;;9906576;29;20219;-78
2022/01/20 23:31:39;;;;;;;18.20;6.67;;;;;1.30;102945.00;;;;9921445;29;20199;-79
2022/01/20 23:36:43;;;;;;;19.93;6.73;;;;;1.20;102947.00;;;;9919509;29;20191;-79
2022/01/20 23:41:48;;;;;;;17.83;5.83;;;;;1.10;102949.00;;;;9883074;30;20207;-79
2022/01/20 23:52:11;;;;;;;25.33;6.43;;;;;0.80;102952.00;;;;9889400;29;20704;-78
2022/01/20 23:57:13;;;;;;;14.17;5.83;;;;;0.80;102961.00;;;;9903580;29;20617;-78
